Time;durP1;ratioP1;P1;durP2;ratioP2;P2;SDS_P1;SDS_P2;PMS_P1;PMS_P2;Temp;Humidity;BMP_temperature;BMP_pressure;BME280_temperature;BME280_humidity;BME280_pressure;Samples;Min_cycle;Max_cycle;Signal;HPM_P1;HPM_P2
2022/11/01 00:00:23;;;;;;;16.00;5.23;;;;;;;14.66;100.00;100746.41;5275815;28;20024;-73
2022/11/01 00:02:54;;;;;;;10.20;4.97;;;;;;;14.78;100.00;100744.59;5276186;28;20028;-72
2022/11/01 00:05:25;;;;;;;12.53;5.90;;;;;;;14.87;100.00;100743.91;5276288;28;20128;-73
2022/11/01 00:07:57;;;;;;;12.63;5.93;;;;;;;14.83;100.00;100740.66;5256515;28;20162;-73
2022/11/01 00:10:28;;;;;;;13.63;5.10;;;;;;;14.95;100.00;100748.53;5258321;28;20020;-72
2022/11/01 00:12:59;;;;;;;11.53;4.77;;;;;;;14.91;100.00;100740.03;5275555;28;20099;-73
2022/11/01 00:15:30;;;;;;;11.90;4.63;;;;;;;14.98;100.00;100740.38;5275693;28;20039;-72
2022/11/01 00:18:02;;;;;;;11.47;5.17;;;;;;;14.94;100.00;100745.06;5274844;28;20427;-72
2022/11/01 00:20:33;;;;;;;11.97;5.10;;;;;;;14.90;100.00;100733.09;5274989;28;20464;-72
2022/11/01 00:23:04;;;;;;;12.00;5.17;;;;;;;15.04;100.00;100739.06;5274738;28;20420;-72
2022/11/01 00:25:36;;;;;;;12.77;5.40;;;;;;;15.07;100.00;100739.66;5277657;28;20125;-72
2022/11/01 00:28:07;;;;;;;14.37;4.57;;;;;;;15.16;100.00;100735.44;5259427;28;20086;-71
2022/11/01 00:30:39;;;;;;;12.40;5.07;;;;;;;15.12;100.00;100731.34;5274740;28;20369;-73
2022/11/01 00:33:10;;;;;;;10.07;4.70;;;;;;;15.06;100.00;100735.31;5256946;28;20103;-74
2022/11/01 00:35:42;;;;;;;16.30;4.43;;;;;;;15.21;100.00;100727.97;5275618;28;20066;-73
2022/11/01 00:38:15;;;;;;;14.13;4.93;;;;;;;15.10;100.00;100730.63;5256892;28;20114;-73
2022/11/01 00:40:46;;;;;;;10.90;5.30;;;;;;;15.17;100.00;100728.38;5274890;28;20040;-73
2022/11/01 00:43:18;;;;;;;8.17;4.13;;;;;;;15.20;100.00;100736.03;5275623;28;20029;-72
2022/11/01 00:45:50;;;;;;;13.03;4.80;;;;;;;15.20;100.00;100728.09;5274719;28;20455;-73
2022/11/01 00:48:21;;;;;;;10.00;4.00;;;;;;;15.10;100.00;100731.47;5275949;28;20106;-73
2022/11/01 00:50:53;;;;;;;10.70;4.70;;;;;;;15.09;100.00;100736.88;5275374;28;20028;-73
2022/11/01 00:53:24;;;;;;;13.10;4.23;;;;;;;15.09;100.00;100726.34;5273943;28;20395;-74
2022/11/01 00:56:03;;;;;;;13.07;6.90;;;;;;;15.18;100.00;100724.75;5275316;28;20039;-73
2022/11/01 00:58:35;;;;;;;13.90;5.13;;;;;;;15.11;100.00;100721.78;5275142;28;20039;-73
2022/11/01 01:01:06;;;;;;;8.93;3.87;;;;;;;15.08;100.00;100716.75;5275100;28;20852;-73
2022/11/01 01:03:37;;;;;;;10.40;4.80;;;;;;;15.10;100.00;100701.63;5257204;28;20036;-73
2022/11/01 01:06:08;;;;;;;9.37;4.20;;;;;;;15.22;100.00;100713.81;5274551;28;20048;-73
2022/11/01 01:08:40;;;;;;;9.20;4.50;;;;;;;15.12;100.00;100712.88;5255658;28;20482;-73
2022/11/01 01:11:11;;;;;;;11.77;4.63;;;;;;;15.17;100.00;100708.06;5256961;28;20487;-73
2022/11/01 01:13:42;;;;;;;13.43;4.37;;;;;;;15.23;100.00;100707.59;5256069;28;20020;-76
2022/11/01 01:16:14;;;;;;;11.60;4.23;;;;;;;15.26;100.00;100709.13;5275115;28;20029;-73
2022/11/01 01:18:45;;;;;;;15.47;5.33;;;;;;;15.26;100.00;100700.38;5274288;28;20039;-73
2022/11/01 01:21:16;;;;;;;9.67;4.20;;;;;;;15.36;100.00;100707.41;5274793;28;20040;-74
2022/11/01 01:23:47;;;;;;;8.53;4.20;;;;;;;15.33;100.00;100717.38;5276856;28;20103;-73
2022/11/01 01:26:19;;;;;;;11.83;3.87;;;;;;;15.26;100.00;100710.91;5275256;28;20402;-73
2022/11/01 01:28:53;;;;;;;13.37;5.13;;;;;;;15.37;100.00;100713.53;5274777;28;20025;-72
2022/11/01 01:31:25;;;;;;;12.90;4.18;;;;;;;15.27;100.00;100707.34;5256521;28;20025;-72
2022/11/01 01:33:57;;;;;;;13.63;5.67;;;;;;;15.21;100.00;100706.88;5274467;28;20055;-72
2022/11/01 01:36:28;;;;;;;14.83;4.90;;;;;;;15.21;100.00;100717.44;5255922;28;20027;-73
2022/11/01 01:38:59;;;;;;;9.33;4.50;;;;;;;15.32;100.00;100710.44;5254772;28;20041;-73
2022/11/01 01:44:46;;;;;;;12.63;4.80;;;;;;;15.34;100.00;100714.59;5274674;28;20467;-72
2022/11/01 01:47:30;;;;;;;13.87;6.33;;;;;;;15.31;100.00;100708.75;5255999;28;20042;-74
2022/11/01 01:50:06;;;;;;;13.30;4.93;;;;;;;15.34;100.00;100713.78;5273780;28;20031;-72
2022/11/01 01:52:50;;;;;;;11.23;4.37;;;;;;;15.30;100.00;100700.00;5255800;28;20039;-72
2022/11/01 01:55:26;;;;;;;12.23;5.35;;;;;;;15.41;100.00;100709.66;5273627;28;20433;-72
2022/11/01 01:57:58;;;;;;;12.43;4.93;;;;;;;15.42;100.00;100706.06;5273315;28;20538;-73
2022/11/01 02:00:29;;;;;;;11.20;4.97;;;;;;;15.34;100.00;100690.84;5255425;28;20039;-73
2022/11/01 02:03:00;;;;;;;14.83;4.20;;;;;;;15.44;100.00;100704.13;5255788;28;20070;-72
2022/11/01 02:05:49;;;;;;;11.03;5.67;;;;;;;15.42;100.00;100700.78;5273789;28;20059;-72
2022/11/01 02:08:26;;;;;;;13.93;5.63;;;;;;;15.43;100.00;100707.72;5272740;28;20045;-72
2022/11/01 02:11:03;;;;;;;9.47;4.73;;;;;;;15.41;100.00;100704.38;5290245;22;20090;-72
2022/11/01 02:13:35;;;;;;;13.97;4.23;;;;;;;15.49;100.00;100711.66;5274363;28;20465;-71
2022/11/01 02:16:42;;;;;;;12.90;4.83;;;;;;;15.41;100.00;100699.09;5272115;28;20159;-72
2022/11/01 02:19:34;;;;;;;9.10;4.40;;;;;;;15.40;100.00;100713.25;5271983;28;20043;-74
2022/11/01 02:22:11;;;;;;;11.20;4.10;;;;;;;15.42;100.00;100706.06;5251695;28;20391;-73
2022/11/01 02:25:09;;;;;;;9.67;4.03;;;;;;;15.46;100.00;100710.09;5267936;28;20059;-74
2022/11/01 02:28:01;;;;;;;10.47;4.00;;;;;;;15.40;100.00;100705.34;5272557;28;20043;-71
2022/11/01 02:31:08;;;;;;;10.87;4.57;;;;;;;15.45;100.00;100694.41;5271874;28;20347;-72
2022/11/01 02:33:46;;;;;;;11.13;4.13;;;;;;;15.42;100.00;100713.97;5272658;28;20028;-73
2022/11/01 02:36:30;;;;;;;10.63;4.47;;;;;;;15.40;100.00;100705.34;5271538;28;20455;-72
2022/11/01 02:39:15;;;;;;;7.15;4.00;;;;;;;15.46;100.00;100712.75;5271002;28;20032;-72
2022/11/01 02:41:56;;;;;;;8.20;3.77;;;;;;;15.42;100.00;100713.13;5272130;28;20583;-71
2022/11/01 02:44:34;;;;;;;12.13;4.47;;;;;;;15.38;100.00;100704.63;5275133;28;20170;-73
2022/11/01 02:47:07;;;;;;;12.60;3.97;;;;;;;15.38;100.00;100719.66;5271603;28;20037;-73
2022/11/01 02:49:52;;;;;;;8.77;5.10;;;;;;;15.38;100.00;100730.19;5275809;28;20031;-72
2022/11/01 02:52:25;;;;;;;8.90;3.78;;;;;;;15.36;100.00;100722.38;5257385;28;20119;-72
2022/11/01 02:54:59;;;;;;;11.03;4.33;;;;;;;15.32;100.00;100736.81;5275315;28;20106;-73
2022/11/01 02:57:39;;;;;;;12.23;4.72;;;;;;;15.38;100.00;100723.09;5257961;28;20024;-73
2022/11/01 03:00:29;;;;;;;14.27;5.00;;;;;;;15.34;100.00;100733.06;5275170;28;20040;-73
2022/11/01 03:03:14;;;;;;;12.00;4.73;;;;;;;15.36;100.00;100732.94;5275255;28;20036;-73
2022/11/01 03:05:50;;;;;;;11.23;4.03;;;;;;;15.33;100.00;100741.97;5275428;28;20033;-73
2022/11/01 03:08:35;;;;;;;8.13;3.93;;;;;;;15.19;100.00;100727.25;5274908;28;20368;-74
2022/11/01 03:11:06;;;;;;;;;;;;;;;15.39;100.00;100745.91;5275556;28;20066;-72
2022/11/01 03:13:56;;;;;;;10.30;3.43;;;;;;;15.30;100.00;100749.28;5257266;28;19920;-74
2022/11/01 03:16:30;;;;;;;9.40;4.10;;;;;;;15.29;100.00;100751.06;5275722;28;20032;-73
2022/11/01 03:19:26;;;;;;;13.10;4.50;;;;;;;15.30;100.00;100758.06;5273321;28;20068;-73
2022/11/01 03:22:19;;;;;;;8.87;4.30;;;;;;;15.33;100.00;100764.84;5274457;28;20384;-72
2022/11/01 03:25:04;;;;;;;10.67;3.87;;;;;;;15.35;100.00;100773.50;5275334;28;20276;-72
2022/11/01 03:27:43;;;;;;;10.63;4.20;;;;;;;15.28;100.00;100774.94;5274994;28;20028;-72
2022/11/01 03:30:14;;;;;;;8.93;3.43;;;;;;;15.22;100.00;100768.41;5274418;28;20119;-73
2022/11/01 03:32:48;;;;;;;4.47;2.33;;;;;;;15.33;100.00;100778.91;5275346;28;20103;-73
2022/11/01 03:35:26;;;;;;;3.92;2.20;;;;;;;15.24;100.00;100784.91;5275300;28;20440;-73
2022/11/01 03:38:01;;;;;;;5.10;1.87;;;;;;;15.26;100.00;100790.91;5274141;28;20330;-72
2022/11/01 03:40:34;;;;;;;6.10;2.53;;;;;;;15.17;100.00;100789.84;5275733;28;20034;-72
2022/11/01 03:43:10;;;;;;;6.68;1.77;;;;;;;15.14;100.00;100797.16;5274886;28;20039;-74
2022/11/01 03:45:42;;;;;;;7.23;2.00;;;;;;;15.16;100.00;100801.38;5275462;28;20039;-72
2022/11/01 03:48:13;;;;;;;5.67;1.93;;;;;;;15.13;100.00;100806.91;5275300;28;20031;-73
2022/11/01 03:50:49;;;;;;;9.93;1.93;;;;;;;15.04;100.00;100807.63;5256692;28;20024;-73
2022/11/01 03:53:21;;;;;;;3.20;1.77;;;;;;;14.93;100.00;100806.69;5273601;28;20470;-72
2022/11/01 03:55:53;;;;;;;3.13;1.40;;;;;;;15.02;100.00;100830.63;5273552;28;20050;-74
2022/11/01 03:58:24;;;;;;;8.83;1.40;;;;;;;14.96;100.00;100837.22;5275210;28;20388;-74
2022/11/01 04:00:55;;;;;;;2.33;1.10;;;;;;;14.95;100.00;100841.69;5275177;28;20316;-73
2022/11/01 04:03:26;;;;;;;8.03;1.07;;;;;;;14.94;100.00;100845.25;5274721;28;20036;-73
2022/11/01 04:05:58;;;;;;;2.77;0.57;;;;;;;14.93;100.00;100851.50;5274968;28;20037;-73
2022/11/01 04:08:29;;;;;;;3.10;1.10;;;;;;;14.90;100.00;100869.38;5273669;28;20023;-73
2022/11/01 04:11:01;;;;;;;6.13;0.83;;;;;;;14.86;100.00;100871.41;5274310;28;20106;-72
2022/11/01 04:13:32;;;;;;;6.30;1.30;;;;;;;14.87;100.00;100857.28;5257333;28;20036;-73
2022/11/01 04:21:44;;;;;;;1.77;0.90;;;;;;;14.63;100.00;100884.53;5275099;28;20123;-73
2022/11/01 04:24:19;;;;;;;5.53;0.90;;;;;;;14.61;100.00;100907.53;5255962;28;20115;-72
2022/11/01 04:26:51;;;;;;;3.63;0.70;;;;;;;14.51;100.00;100891.56;5274500;28;20303;-73
2022/11/01 04:29:22;;;;;;;3.20;0.53;;;;;;;14.52;100.00;100899.38;5274393;28;20542;-72
2022/11/01 04:31:53;;;;;;;3.63;1.37;;;;;;;14.44;100.00;100912.28;5273145;28;20425;-74
2022/11/01 04:34:42;;;;;;;4.33;1.03;;;;;;;14.39;100.00;100923.19;5274638;28;20042;-73
2022/11/01 04:37:14;;;;;;;6.43;1.10;;;;;;;14.35;100.00;100928.78;5272943;28;20111;-73
2022/11/01 04:39:45;;;;;;;2.93;1.20;;;;;;;14.33;100.00;100936.78;5274275;28;20150;-73
2022/11/01 04:42:16;;;;;;;5.50;0.80;;;;;;;14.25;100.00;100945.28;5274198;28;20012;-73
2022/11/01 04:44:48;;;;;;;7.30;1.20;;;;;;;14.21;100.00;100938.56;5274388;28;20055;-73
2022/11/01 04:47:19;;;;;;;4.93;0.93;;;;;;;14.22;100.00;100937.63;5274385;28;20028;-74
2022/11/01 04:49:50;;;;;;;2.80;0.90;;;;;;;14.13;100.00;100954.09;5273114;28;20173;-73
2022/11/01 04:52:22;;;;;;;6.30;1.53;;;;;;;14.12;100.00;100963.78;5254751;28;20036;-74
2022/11/01 04:54:53;;;;;;;3.90;0.90;;;;;;;14.14;100.00;100974.19;5273179;28;20028;-74
2022/11/01 04:57:24;;;;;;;2.93;0.67;;;;;;;14.11;100.00;100974.41;5255713;28;20078;-73
2022/11/01 04:59:56;;;;;;;8.10;1.00;;;;;;;13.98;100.00;100975.31;5273154;28;20028;-73
2022/11/01 05:02:29;;;;;;;5.07;0.80;;;;;;;13.86;100.00;100982.31;5274627;28;20040;-74
2022/11/01 05:05:00;;;;;;;4.67;0.80;;;;;;;14.00;100.00;101015.53;5274983;28;20086;-73
2022/11/01 05:07:31;;;;;;;4.80;0.83;;;;;;;13.98;100.00;101004.28;5274580;28;20032;-73
2022/11/01 05:10:04;;;;;;;4.83;1.07;;;;;;;13.94;100.00;101020.41;5275431;28;20467;-73
2022/11/01 05:12:36;;;;;;;4.27;0.87;;;;;;;13.79;100.00;101017.91;5275186;28;20048;-74
2022/11/01 05:15:07;;;;;;;3.97;1.47;;;;;;;13.75;100.00;101006.75;5275477;28;20056;-73
2022/11/01 05:17:41;;;;;;;3.07;0.80;;;;;;;13.81;100.00;101018.66;5275552;28;20033;-73
2022/11/01 05:20:13;;;;;;;2.28;0.80;;;;;;;13.66;100.00;101007.44;5256246;28;20039;-73
2022/11/01 05:22:44;;;;;;;4.50;1.20;;;;;;;13.75;100.00;101033.06;5274450;28;20020;-73
2022/11/01 05:25:16;;;;;;;6.60;0.97;;;;;;;13.77;100.00;101039.06;5274708;28;20068;-73
2022/11/01 05:27:48;;;;;;;3.53;0.63;;;;;;;13.69;100.00;101038.78;5275145;28;20032;-73
2022/11/01 05:30:19;;;;;;;3.70;1.30;;;;;;;13.61;100.00;101035.84;5275132;28;20033;-74
2022/11/01 05:32:58;;;;;;;3.77;0.60;;;;;;;13.66;100.00;101046.91;5275215;28;20020;-73
2022/11/01 05:35:30;;;;;;;2.97;0.80;;;;;;;13.55;100.00;101042.38;5274810;28;20032;-74
2022/11/01 05:38:03;;;;;;;4.03;0.80;;;;;;;13.59;100.00;101045.66;5278623;28;20032;-74
2022/11/01 05:40:34;;;;;;;4.07;1.03;;;;;;;13.48;100.00;101046.34;5275010;28;20040;-72
2022/11/01 05:43:05;;;;;;;16.50;1.70;;;;;;;13.45;100.00;101051.81;5274376;28;20506;-73
2022/11/01 05:45:37;;;;;;;3.67;1.07;;;;;;;13.52;100.00;101055.75;5274808;28;20461;-73
2022/11/01 05:48:08;;;;;;;3.23;1.10;;;;;;;13.40;100.00;101054.78;5273692;28;20028;-75
2022/11/01 05:50:39;;;;;;;2.80;0.90;;;;;;;13.42;100.00;101058.97;5275161;28;20107;-74
2022/11/01 05:53:10;;;;;;;4.73;0.90;;;;;;;13.44;100.00;101058.88;5273495;28;20043;-73
2022/11/01 05:55:42;;;;;;;6.10;1.60;;;;;;;13.37;100.00;101068.97;5256580;28;20169;-73
2022/11/01 05:58:13;;;;;;;4.70;1.10;;;;;;;13.35;100.00;101072.66;5274639;28;20475;-73
2022/11/01 06:00:44;;;;;;;9.73;1.27;;;;;;;13.31;100.00;101078.16;5274519;28;20051;-73
2022/11/01 06:03:15;;;;;;;6.47;1.00;;;;;;;13.26;100.00;101069.72;5274613;28;20040;-73
2022/11/01 06:05:47;;;;;;;6.47;1.10;;;;;;;13.28;100.00;101074.88;5274630;28;20469;-74
2022/11/01 06:08:18;;;;;;;6.57;1.20;;;;;;;13.24;100.00;101066.34;5254851;28;20394;-73
2022/11/01 06:10:50;;;;;;;10.33;2.77;;;;;;;13.11;100.00;101070.75;5274554;28;20056;-73
2022/11/01 06:13:22;;;;;;;4.93;1.20;;;;;;;13.24;100.00;101092.66;5274559;28;20595;-73
2022/11/01 06:16:00;;;;;;;6.97;1.30;;;;;;;13.18;100.00;101098.31;5273335;28;20036;-73
2022/11/01 06:18:31;;;;;;;8.07;1.77;;;;;;;13.04;100.00;101102.72;5259560;28;20540;-73
2022/11/01 06:21:03;;;;;;;5.73;1.20;;;;;;;13.12;100.00;101109.25;5278489;28;20020;-73
2022/11/01 06:23:34;;;;;;;5.13;1.30;;;;;;;13.05;100.00;101107.03;5259791;28;20057;-72
2022/11/01 06:26:06;;;;;;;7.23;1.23;;;;;;;13.04;100.00;101109.75;5260502;28;20107;-73
2022/11/01 06:28:37;;;;;;;5.60;1.23;;;;;;;13.01;100.00;101107.31;5260318;28;20024;-72
2022/11/01 06:31:08;;;;;;;4.10;1.00;;;;;;;12.95;100.00;101111.22;5259496;28;20111;-72
2022/11/01 06:33:39;;;;;;;6.27;1.40;;;;;;;13.00;100.00;101116.16;5260551;28;20505;-73
2022/11/01 06:36:11;;;;;;;6.93;1.93;;;;;;;12.98;100.00;101120.69;5278104;28;20518;-72
2022/11/01 06:38:42;;;;;;;6.80;1.40;;;;;;;12.96;100.00;101126.03;5270106;28;20037;-75
2022/11/01 06:41:14;;;;;;;6.37;1.70;;;;;;;12.92;100.00;101125.41;5266066;28;20518;-72
2022/11/01 06:43:47;;;;;;;8.57;1.20;;;;;;;12.83;100.00;101124.22;5277040;28;20464;-71
2022/11/01 06:46:19;;;;;;;7.13;1.60;;;;;;;12.94;100.00;101146.31;5268961;28;20050;-70
2022/11/01 06:48:50;;;;;;;15.10;1.87;;;;;;;12.81;100.00;101133.97;5278131;28;20655;-69
2022/11/01 06:51:21;;;;;;;7.83;1.57;;;;;;;12.83;100.00;101142.59;5264790;28;20051;-72
2022/11/01 06:53:53;;;;;;;8.07;2.30;;;;;;;12.87;100.00;101153.78;5272409;28;20378;-71
2022/11/01 06:56:24;;;;;;;6.80;1.30;;;;;;;12.73;100.00;101152.03;5277964;28;20064;-71
2022/11/01 06:58:55;;;;;;;6.20;1.70;;;;;;;12.76;100.00;101172.84;5258385;28;20044;-74
2022/11/01 07:01:28;;;;;;;6.47;1.90;;;;;;;12.70;100.00;101162.75;5257906;28;20435;-71
2022/11/01 07:03:59;;;;;;;8.40;2.13;;;;;;;12.74;100.00;101166.03;5268606;28;20035;-75
2022/11/01 07:06:30;;;;;;;9.17;1.90;;;;;;;12.65;100.00;101159.56;5276735;28;20036;-72
2022/11/01 07:09:02;;;;;;;5.10;1.37;;;;;;;12.60;100.00;101161.63;5276206;28;20043;-73
2022/11/01 07:11:33;;;;;;;11.37;2.10;;;;;;;12.70;100.00;101179.38;5268335;28;20036;-76
2022/11/01 07:14:05;;;;;;;8.27;1.97;;;;;;;12.75;100.00;101191.34;5276210;28;20028;-73
2022/11/01 07:16:37;;;;;;;14.83;3.17;;;;;;;12.69;100.00;101195.19;5276440;28;20099;-71
2022/11/01 07:19:09;;;;;;;10.67;2.00;;;;;;;12.63;100.00;101199.09;5268085;28;20035;-71
2022/11/01 07:21:40;;;;;;;11.83;2.10;;;;;;;12.78;100.00;101209.53;5277068;28;20033;-71
2022/11/01 07:24:11;;;;;;;8.10;1.63;;;;;;;12.56;100.00;101192.53;5276996;28;20395;-75
2022/11/01 07:26:42;;;;;;;12.83;1.67;;;;;;;12.58;100.00;101212.47;5247700;28;20509;-74
2022/11/01 07:29:14;;;;;;;7.77;2.03;;;;;;;12.52;100.00;101218.13;5256641;28;20029;-72
2022/11/01 07:31:46;;;;;;;5.70;1.57;;;;;;;12.67;100.00;101223.38;5269049;28;20057;-72
2022/11/01 07:34:17;;;;;;;9.53;2.27;;;;;;;12.67;100.00;101226.00;5245514;28;20025;-73
2022/11/01 07:36:52;;;;;;;10.47;2.00;;;;;;;12.71;100.00;101243.25;5267951;28;20026;-72
2022/11/01 07:39:24;;;;;;;11.30;2.15;;;;;;;12.57;100.00;101237.09;5259340;28;20040;-73
2022/11/01 07:41:57;;;;;;;10.77;2.20;;;;;;;12.68;100.00;101243.44;5277166;28;20565;-71
2022/11/01 07:44:28;;;;;;;11.63;3.03;;;;;;;12.68;100.00;101231.16;5277350;28;20119;-71
2022/11/01 07:46:59;;;;;;;12.40;2.33;;;;;;;12.77;100.00;101242.88;5259175;28;20119;-75
2022/11/01 07:49:31;;;;;;;12.20;2.90;;;;;;;12.79;100.00;101230.47;5276910;28;20024;-74
2022/11/01 07:52:03;;;;;;;12.03;3.37;;;;;;;12.73;100.00;101240.53;5276951;28;20457;-72
2022/11/01 07:54:34;;;;;;;13.03;2.23;;;;;;;12.75;100.00;101252.66;5277338;28;20408;-71
2022/11/01 07:57:05;;;;;;;7.97;2.07;;;;;;;12.74;100.00;101250.13;5277622;28;20103;-71
2022/11/01 07:59:36;;;;;;;9.80;2.87;;;;;;;12.76;100.00;101259.56;5277461;28;20047;-74
2022/11/01 08:02:08;;;;;;;14.90;2.90;;;;;;;12.72;100.00;101255.47;5277131;28;20430;-70
2022/11/01 08:04:39;;;;;;;10.73;3.00;;;;;;;12.82;100.00;101266.25;5277079;28;20025;-71
2022/11/01 08:07:11;;;;;;;13.53;3.33;;;;;;;12.77;100.00;101268.31;5276297;28;20028;-70
2022/11/01 08:09:43;;;;;;;10.83;2.50;;;;;;;12.81;100.00;101281.16;5277278;28;20035;-75
2022/11/01 08:12:14;;;;;;;9.17;2.10;;;;;;;12.88;100.00;101275.53;5276935;28;20055;-71
2022/11/01 08:14:45;;;;;;;10.53;2.23;;;;;;;12.90;100.00;101279.75;5276314;28;20113;-71
2022/11/01 08:17:16;;;;;;;13.03;1.97;;;;;;;12.83;100.00;101271.41;5276381;28;20042;-72
2022/11/01 08:19:48;;;;;;;15.17;2.40;;;;;;;12.88;100.00;101281.63;5270915;28;20035;-72
2022/11/01 08:22:19;;;;;;;11.33;2.70;;;;;;;12.92;100.00;101283.13;5266635;28;20037;-70
2022/11/01 08:24:51;;;;;;;11.97;2.50;;;;;;;12.72;100.00;101249.38;5266689;28;20029;-74
2022/11/01 08:27:22;;;;;;;16.77;3.73;;;;;;;12.86;100.00;101278.25;5260997;28;20499;-71
2022/11/01 08:29:53;;;;;;;15.77;3.30;;;;;;;12.84;100.00;101285.41;5246651;28;20028;-76
2022/11/01 08:32:25;;;;;;;13.93;2.80;;;;;;;12.94;100.00;101312.78;5276776;28;20039;-72
2022/11/01 08:34:56;;;;;;;14.23;3.30;;;;;;;12.95;100.00;101292.63;5279784;28;20032;-74
2022/11/01 08:37:27;;;;;;;15.37;3.27;;;;;;;12.93;100.00;101300.56;5267990;28;20047;-70
2022/11/01 08:39:59;;;;;;;15.67;2.77;;;;;;;12.94;100.00;101293.53;5268410;28;20640;-69
2022/11/01 08:42:30;;;;;;;13.27;2.60;;;;;;;13.02;100.00;101300.97;5235586;28;20041;-73
2022/11/01 08:45:01;;;;;;;11.57;2.33;;;;;;;13.03;100.00;101306.13;5265625;28;20478;-71
2022/11/01 08:47:32;;;;;;;9.07;2.30;;;;;;;13.08;100.00;101305.81;5268883;28;20426;-74
2022/11/01 08:50:05;;;;;;;13.40;2.43;;;;;;;13.12;100.00;101304.69;5236143;28;20028;-71
2022/11/01 08:52:37;;;;;;;14.77;3.20;;;;;;;13.13;100.00;101300.25;5253621;28;20036;-71
2022/11/01 08:55:09;;;;;;;10.03;2.57;;;;;;;13.15;100.00;101303.63;5253149;28;20472;-72
2022/11/01 08:57:41;;;;;;;13.20;2.50;;;;;;;13.27;100.00;101315.16;5254077;28;20486;-71
2022/11/01 09:00:13;;;;;;;15.07;2.90;;;;;;;13.26;100.00;101322.22;5253298;28;20052;-73
2022/11/01 09:02:44;;;;;;;12.93;2.60;;;;;;;13.31;100.00;101322.78;5262875;28;20411;-73
2022/11/01 09:05:16;;;;;;;14.50;3.10;;;;;;;13.46;100.00;101319.25;5272748;28;20047;-71
2022/11/01 09:07:47;;;;;;;10.83;2.30;;;;;;;13.69;100.00;101324.81;5263509;28;20040;-74
2022/11/01 09:10:19;;;;;;;12.00;2.30;;;;;;;14.49;95.35;101320.41;5270007;28;20111;-72
2022/11/01 09:12:50;;;;;;;12.17;2.37;;;;;;;14.64;93.23;101327.25;5272806;28;20056;-72
2022/11/01 09:15:21;;;;;;;12.90;2.30;;;;;;;14.56;94.25;101331.34;5273673;28;20115;-72
2022/11/01 09:17:53;;;;;;;11.57;2.60;;;;;;;14.61;93.94;101330.09;5273447;28;20049;-72
2022/11/01 09:20:25;;;;;;;14.50;2.43;;;;;;;15.05;88.79;101323.63;5274616;28;20493;-71
2022/11/01 09:22:56;;;;;;;8.77;2.17;;;;;;;16.11;86.17;101334.44;5273653;28;20035;-75
2022/11/01 09:25:27;;;;;;;10.07;2.10;;;;;;;17.76;80.83;101347.19;5274871;28;20494;-73
2022/11/01 09:27:59;;;;;;;9.63;2.20;;;;;;;18.72;61.41;101341.91;5268865;28;20036;-71
2022/11/01 09:30:30;;;;;;;8.63;2.10;;;;;;;18.76;56.77;101334.53;5254465;28;20043;-71
2022/11/01 09:33:05;;;;;;;9.33;2.47;;;;;;;19.30;57.04;101351.06;5273639;28;20616;-71
2022/11/01 09:35:37;;;;;;;11.40;2.63;;;;;;;19.22;54.87;101343.75;5274157;28;20036;-73
2022/11/01 09:38:08;;;;;;;13.55;2.75;;;;;;;19.09;54.96;101359.91;5255853;28;20483;-75
2022/11/01 09:40:45;;;;;;;11.75;2.63;;;;;;;18.62;56.24;101366.56;5275297;28;20559;-74
2022/11/01 09:43:21;;;;;;;10.93;2.72;;;;;;;18.43;57.47;101367.31;5274889;28;20028;-73
2022/11/01 09:45:56;;;;;;;7.67;2.73;;;;;;;18.01;58.37;101371.63;5254146;28;20102;-75
2022/11/01 09:48:29;;;;;;;10.43;3.00;;;;;;;17.80;59.00;101381.38;5254164;28;20523;-73
2022/11/01 09:51:06;;;;;;;10.82;2.67;;;;;;;17.58;59.72;101376.03;5256637;28;20072;-75
2022/11/01 09:53:37;;;;;;;8.63;2.13;;;;;;;17.56;60.28;101380.59;5252762;28;20540;-73
2022/11/01 09:56:23;;;;;;;10.33;2.40;;;;;;;17.52;61.17;101387.13;5252987;28;20029;-75
2022/11/01 09:59:08;;;;;;;16.40;2.93;;;;;;;17.48;61.63;101381.25;5252437;28;20480;-71
2022/11/01 10:01:42;;;;;;;11.97;2.83;;;;;;;17.33;60.79;101396.53;5235520;28;20032;-73
2022/11/01 10:04:29;;;;;;;11.53;2.23;;;;;;;17.10;61.85;101401.88;5263849;28;20087;-73
2022/11/01 10:07:23;;;;;;;9.20;2.53;;;;;;;17.15;62.06;101401.50;5273346;28;20174;-73
2022/11/01 10:09:58;;;;;;;13.57;3.30;;;;;;;17.20;62.56;101404.63;5227148;28;20044;-71
2022/11/01 10:12:45;;;;;;;11.67;2.93;;;;;;;17.02;62.46;101414.81;5273355;28;20041;-73
2022/11/01 10:15:34;;;;;;;15.30;2.97;;;;;;;17.01;62.11;101418.44;5274420;28;20025;-72
2022/11/01 10:18:20;;;;;;;13.67;2.83;;;;;;;16.69;63.24;101422.63;5274518;28;20120;-72
2022/11/01 10:20:54;;;;;;;13.07;2.47;;;;;;;16.63;63.95;101426.59;5255844;28;20029;-72
2022/11/01 10:23:37;;;;;;;13.73;2.80;;;;;;;16.52;65.01;101422.13;5273985;28;20024;-71
2022/11/01 10:26:14;;;;;;;11.53;2.70;;;;;;;16.47;64.81;101419.00;5274396;28;20048;-72
2022/11/01 10:28:58;;;;;;;10.57;3.00;;;;;;;16.55;64.63;101418.41;5256335;28;20028;-71
2022/11/01 10:31:36;;;;;;;7.40;2.63;;;;;;;16.30;65.73;101407.88;5274235;28;20417;-72
2022/11/01 10:34:20;;;;;;;8.97;2.27;;;;;;;16.54;64.42;101424.66;5274309;28;20150;-72
2022/11/01 10:36:59;;;;;;;12.93;3.28;;;;;;;16.45;64.37;101432.34;5273534;28;20077;-73
2022/11/01 10:39:44;;;;;;;13.53;3.23;;;;;;;16.52;64.89;101431.84;5274323;28;20493;-76
2022/11/01 10:42:16;;;;;;;;;;;;;;;16.70;64.72;101434.91;5274178;28;20027;-72
2022/11/01 10:44:54;;;;;;;12.23;3.33;;;;;;;16.50;64.06;101434.63;5255738;28;19920;-72
2022/11/01 10:47:27;;;;;;;9.17;2.37;;;;;;;16.44;64.52;101429.81;5255783;28;20135;-73
2022/11/01 10:50:02;;;;;;;10.70;2.70;;;;;;;16.37;64.75;101413.53;5272706;28;20032;-72
2022/11/01 10:52:46;;;;;;;13.50;2.47;;;;;;;16.44;64.86;101432.44;5272006;28;20107;-72
2022/11/01 10:55:25;;;;;;;12.65;3.65;;;;;;;16.46;64.65;101427.88;5244060;28;20080;-72
2022/11/01 10:58:03;;;;;;;13.27;2.50;;;;;;;16.60;63.84;101429.47;5260202;28;20112;-71
2022/11/01 11:00:39;;;;;;;12.97;2.80;;;;;;;16.56;63.83;101417.44;5235379;28;20079;-78
2022/11/01 11:03:23;;;;;;;13.37;3.40;;;;;;;16.51;63.86;101417.78;5271361;28;20074;-72
2022/11/01 11:05:58;;;;;;;10.07;3.05;;;;;;;16.55;64.14;101429.81;5258625;28;20044;-72
2022/11/01 11:08:30;;;;;;;11.17;2.73;;;;;;;16.47;63.92;101423.44;5278290;28;20100;-72
2022/11/01 11:11:06;;;;;;;14.13;2.87;;;;;;;16.53;63.17;101420.34;5277265;28;20016;-72
2022/11/01 11:13:42;;;;;;;10.47;2.60;;;;;;;16.52;63.90;101421.28;5259899;28;20031;-72
2022/11/01 11:16:39;;;;;;;11.07;2.87;;;;;;;16.76;63.53;101407.13;5259459;28;20021;-74
2022/11/01 11:19:22;;;;;;;12.90;2.37;;;;;;;16.64;64.25;101428.28;5277399;28;20033;-75
2022/11/01 11:21:53;;;;;;;12.97;2.90;;;;;;;16.62;64.11;101424.06;5276029;28;20483;-74
2022/11/01 11:24:32;;;;;;;13.73;2.83;;;;;;;16.64;63.58;101420.34;5259095;28;20060;-71
2022/11/01 11:27:16;;;;;;;13.70;3.07;;;;;;;16.56;64.75;101406.88;5259447;28;20024;-72
2022/11/01 11:29:54;;;;;;;9.32;2.40;;;;;;;16.68;64.18;101421.81;5277323;28;20029;-72
2022/11/01 11:32:29;;;;;;;11.60;2.10;;;;;;;16.59;64.52;101424.28;5277496;28;20021;-73
2022/11/01 11:35:02;;;;;;;;;;;;;;;16.77;65.41;101416.75;5277417;28;20025;-72
2022/11/01 11:37:37;;;;;;;8.77;2.73;;;;;;;16.72;63.79;101405.69;5258901;28;19913;-72
2022/11/01 11:40:11;;;;;;;9.10;2.60;;;;;;;16.76;63.41;101421.19;5259470;28;20050;-74
2022/11/01 11:42:44;;;;;;;13.35;3.20;;;;;;;16.65;64.02;101411.44;5276949;28;20046;-75
2022/11/01 11:45:21;;;;;;;8.77;2.37;;;;;;;16.84;63.83;101415.31;5277365;28;20028;-72
2022/11/01 11:47:54;;;;;;;10.40;2.23;;;;;;;16.76;63.72;101412.41;5277213;28;20024;-71
2022/11/01 11:50:31;;;;;;;14.33;2.80;;;;;;;16.81;64.19;101416.38;5259421;28;20035;-72
2022/11/01 11:53:05;;;;;;;10.87;2.80;;;;;;;16.57;64.09;101411.19;5276470;28;20173;-72
2022/11/01 11:55:51;;;;;;;16.17;2.53;;;;;;;16.79;64.15;101420.13;5276975;28;20029;-72